Stevensville, MI (49127)

5:37 PM EDT on March 24, 2017 (GMT -0400)
home9085 | | Change Station

Elev 666 ft 41.95 °N, 86.52 °W | Updated 3 seconds ago

Partly Cloudy
Partly Cloudy
75.7 °F
Feels Like 78 °F
N
11.2
Wind Variable Wind from ENE
Gusts 15.0 mph

Today
High -- | Low -- °F
--% Chance of Precip.
Yesterday
High -- | Low -- °F
Precip. -- in
Pressure 29.90 in
Visibility 10.0 miles
Clouds Clear
Heat Index 78 °F
Dew Point 51 °F
Humidity 42%
Rainfall 0.00 in
Snow Depth Not available.
7:42 AM 8:03 PM
Waning Crescent, 13% visible
METAR KBEH 242053Z AUTO 24016G22KT 10SM CLR 25/08 A2990 RMK AO2 PK WND 24029/2025 SLP123 T02500078 58008
Pressure 29.90 in
Visibility 10.0 miles
Clouds Clear
Heat Index 78 °F
Dew Point 51 °F
Humidity 42%
Rainfall 0.00 in
Snow Depth Not available.
7:42 AM 8:03 PM
Waning Crescent, 13% visible
METAR KBEH 242053Z AUTO 24016G22KT 10SM CLR 25/08 A2990 RMK AO2 PK WND 24029/2025 SLP123 T02500078 58008

Get Severe Weather Alerts

Thanks for signing up!

Be on the lookout for a verification email in your inbox.

You'll start receiving the daily forecast at 8 AM.

×

10-Day Weather Forecast

Almanac

Astronomy

Mar. 24, 2017 Rise Set
Actual Time
Civil Twilight
Nautical Twilight
Astronomical Twilight
Moon
Length of Visible Light
Length of Day
Tomorrow will be .
, % of the Moon is Illuminated

Today's Extremes

State Highs State Lows

Community

WunderPhotos

Upload Photos

1,962,540 photos uploaded!

WunderBlog® & News

Nearby

Air Quality

  Air Quality AQ Index Pollutant
Not available.

Snow Depth

Station Depth Elevation

Earthquake Activity

City Distance Mag. Time & Date
Minimum magnitude displayed is 2.5.

Earthquake Activity

City Distance Mag. Time & Date
Minimum magnitude displayed is 2.5.

Coastal Water Temperatures

Place Temperature

Stations

Nearby Weather Stations

Station Location Temp. Windchill Dew Point Humidity Wind Precip. Elev Updated Type
                   

Watches & Warnings

There are currently no watches in effect.